createdAt,value
2023-01-15T00:02:18.054Z,0.20
2023-01-15T00:04:44.755Z,0.10
2023-01-15T00:07:11.354Z,0.10
2023-01-15T00:09:37.850Z,0.30
2023-01-15T00:12:04.631Z,0.27
2023-01-15T00:14:31.138Z,0.32
2023-01-15T00:16:57.716Z,0.40
2023-01-15T00:19:24.341Z,0.52
2023-01-15T00:21:51.514Z,0.20
2023-01-15T00:24:36.414Z,0.23
2023-01-15T00:27:21.609Z,0.20
2023-01-15T00:29:48.366Z,0.10
2023-01-15T00:32:14.810Z,0.10
2023-01-15T00:34:41.349Z,0.17
2023-01-15T00:37:08.150Z,0.40
2023-01-15T00:39:35.701Z,0.20
2023-01-15T00:42:02.634Z,0.35
2023-01-15T00:44:29.284Z,0.17
2023-01-15T00:46:55.881Z,0.30
2023-01-15T00:49:22.469Z,0.23
2023-01-15T00:51:50.116Z,0.32
2023-01-15T00:54:17.337Z,0.20
2023-01-15T00:56:44.083Z,0.40
2023-01-15T00:59:10.685Z,0.35
2023-01-15T01:01:37.355Z,0.30
2023-01-15T01:04:04.206Z,0.30
2023-01-15T01:06:30.920Z,0.43
2023-01-15T01:08:57.552Z,0.20
2023-01-15T01:11:26.734Z,0.20
2023-01-15T01:13:55.209Z,0.33
2023-01-15T01:16:42.511Z,0.47
2023-01-15T01:19:16.074Z,0.20
2023-01-15T01:21:44.006Z,0.68
2023-01-15T01:24:12.643Z,0.10
2023-01-15T01:26:39.654Z,0.30
2023-01-15T01:29:06.684Z,0.57
2023-01-15T01:31:33.629Z,0.30
2023-01-15T01:34:00.276Z,0.43
2023-01-15T01:36:34.541Z,0.35
2023-01-15T01:39:01.987Z,0.30
2023-01-15T01:41:29.294Z,0.10
2023-01-15T01:44:07.192Z,0.57
2023-01-15T01:46:36.656Z,0.10
2023-01-15T01:49:14.676Z,0.20
2023-01-15T01:51:45.505Z,0.30
2023-01-15T01:54:17.611Z,0.30
2023-01-15T01:56:44.396Z,0.22
2023-01-15T01:59:11.936Z,0.40
2023-01-15T02:01:38.708Z,0.30
2023-01-15T02:04:10.756Z,0.50
2023-01-15T02:06:39.209Z,0.30
2023-01-15T02:09:06.195Z,0.50
2023-01-15T02:11:34.346Z,0.63
2023-01-15T02:14:08.101Z,0.47
2023-01-15T02:16:57.306Z,0.40
2023-01-15T02:19:35.359Z,0.70
2023-01-15T02:22:12.321Z,0.40
2023-01-15T02:24:41.751Z,0.35
2023-01-15T02:27:24.056Z,0.47
2023-01-15T02:29:53.616Z,0.10
2023-01-15T02:32:32.005Z,0.22
2023-01-15T02:35:06.100Z,0.35
2023-01-15T02:37:37.491Z,0.20
2023-01-15T02:40:06.884Z,0.30
2023-01-15T02:42:36.254Z,0.30
2023-01-15T02:45:05.620Z,0.25
2023-01-15T02:47:35.997Z,0.40
2023-01-15T02:50:06.299Z,0.22
2023-01-15T02:52:39.264Z,0.30
2023-01-15T02:55:11.672Z,0.27
2023-01-15T02:57:41.955Z,0.30
2023-01-15T03:00:13.970Z,0.30
2023-01-15T03:02:48.305Z,0.20
2023-01-15T03:05:26.485Z,0.47
2023-01-15T03:07:56.791Z,0.20
2023-01-15T03:10:34.998Z,0.47
2023-01-15T03:13:03.442Z,0.10
2023-01-15T03:16:00.751Z,0.30
2023-01-15T03:18:30.603Z,0.10
2023-01-15T03:21:02.078Z,0.30
2023-01-15T03:23:30.421Z,0.17
2023-01-15T03:25:57.609Z,0.10
2023-01-15T03:28:31.611Z,0.20
2023-01-15T03:30:59.208Z,0.20
2023-01-15T03:33:26.767Z,0.10
2023-01-15T03:35:58.465Z,0.15
2023-01-15T03:38:33.943Z,0.10
2023-01-15T03:41:10.439Z,0.70
2023-01-15T03:44:14.605Z,0.08
2023-01-15T03:46:55.232Z,0.10
2023-01-15T03:49:40.034Z,0.45
2023-01-15T03:52:37.248Z,0.30
2023-01-15T03:55:03.690Z,0.25
2023-01-15T03:57:34.493Z,1.10
2023-01-15T04:00:09.279Z,0.30
2023-01-15T04:02:37.631Z,0.28
2023-01-15T04:05:04.847Z,0.52
2023-01-15T04:07:32.332Z,0.40
2023-01-15T04:09:59.008Z,0.30
2023-01-15T04:12:28.092Z,0.20
2023-01-15T04:14:54.684Z,0.40
2023-01-15T04:17:21.268Z,0.00
2023-01-15T04:19:47.737Z,0.50
2023-01-15T04:22:14.369Z,0.32
2023-01-15T04:24:41.932Z,0.27
2023-01-15T04:27:08.429Z,0.30
2023-01-15T04:29:35.022Z,0.20
2023-01-15T04:32:01.549Z,0.52
2023-01-15T04:34:28.790Z,0.77
2023-01-15T04:36:56.394Z,0.23
2023-01-15T04:39:23.569Z,0.63
2023-01-15T04:42:08.831Z,0.32
2023-01-15T04:44:36.541Z,0.30
2023-01-15T04:47:03.418Z,0.20
2023-01-15T04:49:30.038Z,0.37
2023-01-15T04:51:56.981Z,0.20
2023-01-15T04:54:23.538Z,0.20
2023-01-15T04:56:53.014Z,0.20
2023-01-15T04:59:23.082Z,0.38
2023-01-15T05:02:02.300Z,0.57
2023-01-15T05:04:30.819Z,0.40
2023-01-15T05:06:57.465Z,0.25
2023-01-15T05:09:23.968Z,0.20
2023-01-15T05:11:50.558Z,0.17
2023-01-15T05:14:17.066Z,0.27
2023-01-15T05:16:43.806Z,0.63
2023-01-15T05:19:10.828Z,0.20
2023-01-15T05:21:41.657Z,0.25
2023-01-15T05:24:09.211Z,0.17
2023-01-15T05:26:36.951Z,0.10
2023-01-15T05:29:04.729Z,0.10
2023-01-15T05:31:33.768Z,0.30
2023-01-15T05:34:00.985Z,0.10
2023-01-15T05:36:31.717Z,0.13
2023-01-15T05:39:02.070Z,0.27
2023-01-15T05:41:48.683Z,0.20
2023-01-15T05:44:20.329Z,0.10
2023-01-15T05:46:48.503Z,0.22
2023-01-15T05:49:18.377Z,0.20
2023-01-15T05:51:46.082Z,0.23
2023-01-15T05:54:16.626Z,0.20
2023-01-15T05:56:45.654Z,0.10
2023-01-15T05:59:13.539Z,0.20
2023-01-15T06:01:40.851Z,0.20
2023-01-15T06:04:10.143Z,0.20
2023-01-15T06:06:36.788Z,0.08
2023-01-15T06:09:04.591Z,0.10
2023-01-15T06:11:31.783Z,0.10
2023-01-15T06:13:59.192Z,0.10
2023-01-15T06:16:26.128Z,0.07
2023-01-15T06:18:53.262Z,0.17
2023-01-15T06:21:20.104Z,0.00
2023-01-15T06:23:46.993Z,0.20
2023-01-15T06:26:17.429Z,0.10
2023-01-15T06:28:44.796Z,0.10
2023-01-15T06:31:14.639Z,0.32
2023-01-15T06:33:41.827Z,0.03
2023-01-15T06:36:11.407Z,0.10
2023-01-15T06:38:38.907Z,0.03
2023-01-15T06:41:30.309Z,0.17
2023-01-15T06:44:15.361Z,0.40
2023-01-15T06:47:04.891Z,0.10
2023-01-15T06:49:32.429Z,0.08
2023-01-15T06:51:59.290Z,0.20
2023-01-15T06:54:26.508Z,0.30
2023-01-15T06:56:53.928Z,0.00
2023-01-15T06:59:20.788Z,0.20
2023-01-15T07:01:47.806Z,0.10
2023-01-15T07:04:15.484Z,0.10
2023-01-15T07:06:42.293Z,0.10
2023-01-15T07:09:08.943Z,0.20
2023-01-15T07:11:35.550Z,0.10
2023-01-15T07:14:07.889Z,0.20
2023-01-15T07:16:36.250Z,0.30
2023-01-15T07:19:04.431Z,0.27
2023-01-15T07:21:31.259Z,0.30
2023-01-15T07:24:01.924Z,0.20
2023-01-15T07:26:28.758Z,0.38
2023-01-15T07:28:55.497Z,0.17
2023-01-15T07:31:22.156Z,0.10
2023-01-15T07:33:48.945Z,0.20
2023-01-15T07:36:15.754Z,0.20
2023-01-15T07:38:42.395Z,0.20
2023-01-15T07:41:27.599Z,0.22
2023-01-15T07:44:12.629Z,0.60
2023-01-15T07:46:58.080Z,0.10
2023-01-15T07:49:43.478Z,0.15
2023-01-15T07:52:10.062Z,0.80
2023-01-15T07:54:36.649Z,0.40
2023-01-15T07:57:03.975Z,0.10
2023-01-15T07:59:30.798Z,0.10
2023-01-15T08:01:57.453Z,0.10
2023-01-15T08:04:23.992Z,0.60
2023-01-15T08:06:50.641Z,0.30
2023-01-15T08:09:17.349Z,0.20
2023-01-15T08:12:02.305Z,0.17
2023-01-15T08:14:47.501Z,0.38
2023-01-15T08:17:14.128Z,0.20
2023-01-15T08:19:40.730Z,0.03
2023-01-15T08:22:07.284Z,0.30
2023-01-15T08:24:33.820Z,0.30
2023-01-15T08:27:00.434Z,0.20
2023-01-15T08:29:28.098Z,0.20
2023-01-15T08:31:54.931Z,0.10
2023-01-15T08:34:21.960Z,0.33
2023-01-15T08:36:49.784Z,0.28
2023-01-15T08:39:16.287Z,0.35
2023-01-15T08:41:43.002Z,0.50
2023-01-15T08:44:10.390Z,0.30
2023-01-15T08:46:36.893Z,0.23
2023-01-15T08:49:04.723Z,0.50
2023-01-15T08:51:32.455Z,1.25
2023-01-15T08:53:58.977Z,0.47
2023-01-15T08:56:25.499Z,0.30
2023-01-15T08:58:52.113Z,0.47
2023-01-15T09:01:18.953Z,0.32
2023-01-15T09:03:45.579Z,0.73
2023-01-15T09:06:13.510Z,0.30
2023-01-15T09:08:41.050Z,0.65
2023-01-15T09:11:09.706Z,0.20
2023-01-15T09:13:37.894Z,0.38
2023-01-15T09:16:06.168Z,0.60
2023-01-15T09:18:33.194Z,0.25
2023-01-15T09:21:00.031Z,0.60
2023-01-15T09:23:29.324Z,0.10
2023-01-15T09:25:57.877Z,0.35
2023-01-15T09:28:24.911Z,0.25
2023-01-15T09:30:51.904Z,0.57
2023-01-15T09:33:18.769Z,0.75
2023-01-15T09:35:45.806Z,0.20
2023-01-15T09:38:20.933Z,0.43
2023-01-15T09:40:55.950Z,1.30
2023-01-15T09:43:26.703Z,0.85
2023-01-15T09:46:03.971Z,0.32
2023-01-15T09:48:40.294Z,0.30
2023-01-15T09:51:34.020Z,0.98
2023-01-15T09:54:23.719Z,0.30
2023-01-15T09:56:50.671Z,0.30
2023-01-15T09:59:27.135Z,0.15
2023-01-15T10:01:54.064Z,0.47
2023-01-15T10:04:47.366Z,0.50
2023-01-15T10:07:28.993Z,0.43
2023-01-15T10:10:04.507Z,0.45
2023-01-15T10:12:36.141Z,0.45
2023-01-15T10:15:23.169Z,0.30
2023-01-15T10:17:55.532Z,0.47
2023-01-15T10:20:42.255Z,0.50
2023-01-15T10:23:25.505Z,0.40
2023-01-15T10:26:01.452Z,0.60
2023-01-15T10:28:47.071Z,0.67
2023-01-15T10:31:20.605Z,0.80
2023-01-15T10:34:35.274Z,0.30
2023-01-15T10:37:26.610Z,0.50
2023-01-15T10:40:30.969Z,0.60
2023-01-15T10:43:21.715Z,0.60
2023-01-15T10:45:54.013Z,0.30
2023-01-15T10:48:38.304Z,0.32
2023-01-15T10:51:19.423Z,0.20
2023-01-15T10:54:38.131Z,0.35
2023-01-15T10:57:12.616Z,0.50
2023-01-15T10:59:51.467Z,0.43
2023-01-15T11:02:25.017Z,0.38
2023-01-15T11:04:51.980Z,0.52
2023-01-15T11:07:22.072Z,0.70
2023-01-15T11:09:48.823Z,0.83
2023-01-15T11:12:47.865Z,0.65
2023-01-15T11:15:42.721Z,0.60
2023-01-15T11:18:36.518Z,0.30
2023-01-15T11:21:03.549Z,0.35
2023-01-15T11:23:36.338Z,1.23
2023-01-15T11:26:03.489Z,0.43
2023-01-15T11:28:31.815Z,0.38
2023-01-15T11:30:59.674Z,0.73
2023-01-15T11:33:28.873Z,0.43
2023-01-15T11:35:58.769Z,0.50
2023-01-15T11:38:30.932Z,0.20
2023-01-15T11:41:00.562Z,0.30
2023-01-15T11:43:48.246Z,0.73
2023-01-15T11:46:50.659Z,0.50
2023-01-15T11:49:38.237Z,0.40
2023-01-15T11:52:22.961Z,0.73
2023-01-15T11:54:53.078Z,0.50
2023-01-15T11:57:33.126Z,0.85
2023-01-15T11:59:59.974Z,0.30
2023-01-15T12:02:41.153Z,0.73
2023-01-15T12:05:17.844Z,0.68
2023-01-15T12:07:45.980Z,0.50
2023-01-15T12:10:41.321Z,0.70
2023-01-15T12:13:42.320Z,0.60
2023-01-15T12:16:30.273Z,0.97
2023-01-15T12:19:12.710Z,0.60
2023-01-15T12:21:55.296Z,0.65
2023-01-15T12:24:37.316Z,0.32
2023-01-15T12:27:22.584Z,0.60
2023-01-15T12:30:06.492Z,0.70
2023-01-15T12:32:41.726Z,0.75
2023-01-15T12:35:17.611Z,0.55
2023-01-15T12:37:54.134Z,0.40
2023-01-15T12:40:47.448Z,0.60
2023-01-15T12:44:00.016Z,0.53
2023-01-15T12:46:30.162Z,0.60
2023-01-15T12:49:30.622Z,0.75
2023-01-15T12:52:10.831Z,0.77
2023-01-15T12:54:46.828Z,0.30
2023-01-15T12:57:25.846Z,0.40
2023-01-15T13:00:19.785Z,0.63
2023-01-15T13:03:14.846Z,1.00
2023-01-15T13:05:53.735Z,0.63
2023-01-15T13:08:38.499Z,0.70
2023-01-15T13:11:11.771Z,0.60
2023-01-15T13:13:40.930Z,0.35
2023-01-15T13:16:44.337Z,2.33
2023-01-15T13:19:19.902Z,3.70
2023-01-15T13:21:52.771Z,1.80
2023-01-15T13:24:54.762Z,3.67
2023-01-15T13:27:45.328Z,1.25
2023-01-15T13:30:24.327Z,1.88
2023-01-15T13:32:56.681Z,1.30
2023-01-15T13:35:30.470Z,1.20
2023-01-15T13:38:01.126Z,1.10
2023-01-15T13:40:34.871Z,1.40
2023-01-15T13:43:03.785Z,0.80
2023-01-15T13:45:33.376Z,1.20
2023-01-15T13:48:14.466Z,1.38
2023-01-15T13:50:53.258Z,1.80
2023-01-15T13:53:28.505Z,0.73
2023-01-15T13:56:07.366Z,0.93
2023-01-15T13:58:55.143Z,0.75
2023-01-15T14:01:30.912Z,1.00
2023-01-15T14:04:05.240Z,0.73
2023-01-15T14:06:46.816Z,1.27
2023-01-15T14:09:34.823Z,1.25
2023-01-15T14:12:07.555Z,2.33
2023-01-15T14:14:50.239Z,1.85
2023-01-15T14:17:41.872Z,1.40
2023-01-15T14:20:22.343Z,1.83
2023-01-15T14:23:25.535Z,0.50
2023-01-15T14:26:02.889Z,0.70
2023-01-15T14:29:03.678Z,0.40
2023-01-15T14:31:51.216Z,1.00
2023-01-15T14:34:28.860Z,0.63
2023-01-15T14:37:01.676Z,0.30
2023-01-15T14:39:46.338Z,0.60
2023-01-15T14:42:40.736Z,0.93
2023-01-15T14:45:13.192Z,0.53
2023-01-15T14:47:57.357Z,0.88
2023-01-15T14:50:40.535Z,0.55
2023-01-15T14:53:16.240Z,0.75
2023-01-15T14:55:48.887Z,0.73
2023-01-15T14:58:31.040Z,0.80
2023-01-15T15:01:17.996Z,0.85
2023-01-15T15:03:52.827Z,0.63
2023-01-15T15:06:20.095Z,0.95
2023-01-15T15:08:47.495Z,0.90
2023-01-15T15:12:06.175Z,0.83
2023-01-15T15:14:39.007Z,0.57
2023-01-15T15:17:16.294Z,1.02
2023-01-15T15:19:49.236Z,0.57
2023-01-15T15:22:22.257Z,0.60
2023-01-15T15:24:51.934Z,0.80
2023-01-15T15:27:21.092Z,0.73
2023-01-15T15:29:47.869Z,1.00
2023-01-15T15:32:20.162Z,0.60
2023-01-15T15:34:51.153Z,0.82
2023-01-15T15:37:28.145Z,0.77
2023-01-15T15:40:03.718Z,0.85
2023-01-15T15:43:21.821Z,0.80
2023-01-15T15:46:12.514Z,0.88
2023-01-15T15:48:42.368Z,1.10
2023-01-15T15:51:34.953Z,0.60
2023-01-15T15:54:12.037Z,0.68
2023-01-15T15:56:42.995Z,0.93
2023-01-15T15:59:19.145Z,0.80
2023-01-15T16:01:46.013Z,0.90
2023-01-15T16:04:18.396Z,0.90
2023-01-15T16:06:45.515Z,0.77
2023-01-15T16:09:12.350Z,1.75
2023-01-15T16:11:40.759Z,1.35
2023-01-15T16:14:13.015Z,1.00
2023-01-15T16:16:39.885Z,1.03
2023-01-15T16:19:10.533Z,1.45
2023-01-15T16:21:40.731Z,1.30
2023-01-15T16:24:09.831Z,1.60
2023-01-15T16:26:46.662Z,1.02
2023-01-15T16:29:26.787Z,1.30
2023-01-15T16:31:56.810Z,0.90
2023-01-15T16:34:26.792Z,1.00
2023-01-15T16:36:53.372Z,1.40
2023-01-15T16:39:23.041Z,1.00
2023-01-15T16:41:50.955Z,1.00
2023-01-15T16:44:54.974Z,1.10
2023-01-15T16:47:59.662Z,0.60
2023-01-15T16:50:29.474Z,0.88
2023-01-15T16:53:02.166Z,0.68
2023-01-15T16:55:34.840Z,0.70
2023-01-15T16:58:13.415Z,0.65
2023-01-15T17:00:45.984Z,0.73
2023-01-15T17:03:14.671Z,0.75
2023-01-15T17:05:41.762Z,0.90
2023-01-15T17:08:39.763Z,1.10
2023-01-15T17:11:17.855Z,0.75
2023-01-15T17:13:44.424Z,0.63
2023-01-15T17:16:13.919Z,0.98
2023-01-15T17:18:40.742Z,0.98
2023-01-15T17:21:31.657Z,0.47
2023-01-15T17:23:59.928Z,0.68
2023-01-15T17:26:27.845Z,0.60
2023-01-15T17:28:54.574Z,1.20
2023-01-15T17:31:28.575Z,1.02
2023-01-15T17:33:55.842Z,1.00
2023-01-15T17:36:22.854Z,1.02
2023-01-15T17:38:50.167Z,1.15
2023-01-15T17:41:18.585Z,1.52
2023-01-15T17:43:45.609Z,0.90
2023-01-15T17:46:12.461Z,1.13
2023-01-15T17:48:39.116Z,1.00
2023-01-15T17:51:11.820Z,1.35
2023-01-15T17:53:38.515Z,2.13
2023-01-15T17:56:24.543Z,0.65
2023-01-15T17:59:09.731Z,0.93
2023-01-15T18:01:59.336Z,0.30
2023-01-15T18:04:47.286Z,1.05
2023-01-15T18:07:20.825Z,1.10
2023-01-15T18:09:52.946Z,1.13
2023-01-15T18:12:19.597Z,0.70
2023-01-15T18:14:46.150Z,1.00
2023-01-15T18:17:12.906Z,1.20
2023-01-15T18:19:39.502Z,1.02
2023-01-15T18:22:06.167Z,1.08
2023-01-15T18:24:32.647Z,1.47
2023-01-15T18:26:59.173Z,1.50
2023-01-15T18:29:25.713Z,1.90
2023-01-15T18:31:52.311Z,1.35
2023-01-15T18:34:18.951Z,1.95
2023-01-15T18:36:45.529Z,2.47
2023-01-15T18:39:13.522Z,2.85
2023-01-15T18:41:40.796Z,3.83
2023-01-15T18:44:31.493Z,4.10
2023-01-15T18:47:04.266Z,4.65
2023-01-15T18:49:31.245Z,1.77
2023-01-15T18:52:16.991Z,2.03
2023-01-15T18:54:43.591Z,1.73
2023-01-15T18:57:10.288Z,1.20
2023-01-15T18:59:36.989Z,2.17
2023-01-15T19:02:04.106Z,1.50
2023-01-15T19:04:31.117Z,1.98
2023-01-15T19:06:57.915Z,1.60
2023-01-15T19:09:24.643Z,1.40
2023-01-15T19:11:52.560Z,1.60
2023-01-15T19:14:38.792Z,1.53
2023-01-15T19:17:24.615Z,1.77
2023-01-15T19:19:51.198Z,1.50
2023-01-15T19:22:56.293Z,2.00
2023-01-15T19:25:23.453Z,2.58
2023-01-15T19:27:52.935Z,2.63
2023-01-15T19:30:19.916Z,3.20
2023-01-15T19:32:46.535Z,2.35
2023-01-15T19:35:13.411Z,2.92
2023-01-15T19:37:39.977Z,3.22
2023-01-15T19:40:10.141Z,3.00
2023-01-15T19:42:55.400Z,3.78
2023-01-15T19:45:40.817Z,2.67
2023-01-15T19:48:31.386Z,3.25
2023-01-15T19:50:57.996Z,3.65
2023-01-15T19:53:24.744Z,3.80
2023-01-15T19:55:51.495Z,4.70
2023-01-15T19:58:18.200Z,5.20
2023-01-15T20:00:48.569Z,5.35
2023-01-15T20:03:15.997Z,6.53
2023-01-15T20:05:43.969Z,6.83
2023-01-15T20:08:15.776Z,6.15
2023-01-15T20:10:44.472Z,4.68
2023-01-15T20:13:32.158Z,4.15
2023-01-15T20:16:01.747Z,5.40
2023-01-15T20:18:28.955Z,4.40
2023-01-15T20:20:56.120Z,5.75
2023-01-15T20:23:22.959Z,5.85
2023-01-15T20:25:52.941Z,5.57
2023-01-15T20:28:20.649Z,7.47
2023-01-15T20:30:47.275Z,8.07
2023-01-15T20:33:14.159Z,6.90
2023-01-15T20:35:40.884Z,5.90
2023-01-15T20:38:07.623Z,6.75
2023-01-15T20:40:34.154Z,6.68
2023-01-15T20:43:19.284Z,6.17
2023-01-15T20:45:46.254Z,5.10
2023-01-15T20:48:12.911Z,4.45
2023-01-15T20:51:00.956Z,3.97
2023-01-15T20:53:33.694Z,3.60
2023-01-15T20:56:10.713Z,3.60
2023-01-15T20:58:37.513Z,3.38
2023-01-15T21:01:06.715Z,3.50
2023-01-15T21:03:33.650Z,2.35
2023-01-15T21:06:00.317Z,3.20
2023-01-15T21:08:27.512Z,2.30
2023-01-15T21:10:55.054Z,2.38
2023-01-15T21:13:22.966Z,2.17
2023-01-15T21:15:55.611Z,2.40
2023-01-15T21:18:22.224Z,2.15
2023-01-15T21:20:48.992Z,2.17
2023-01-15T21:23:15.662Z,3.10
2023-01-15T21:25:42.324Z,2.72
2023-01-15T21:28:09.115Z,3.20
2023-01-15T21:30:35.818Z,2.42
2023-01-15T21:33:02.362Z,1.93
2023-01-15T21:35:29.029Z,2.17
2023-01-15T21:37:55.617Z,2.17
2023-01-15T21:40:22.320Z,2.65
2023-01-15T21:43:07.443Z,1.83
2023-01-15T21:45:34.115Z,2.97
2023-01-15T21:48:01.281Z,2.33
2023-01-15T21:50:27.986Z,1.92
2023-01-15T21:52:54.699Z,1.80
2023-01-15T21:55:21.266Z,1.88
2023-01-15T21:57:49.285Z,2.37
2023-01-15T22:00:17.781Z,2.45
2023-01-15T22:02:44.474Z,2.13
2023-01-15T22:05:11.255Z,1.90
2023-01-15T22:07:37.978Z,2.80
2023-01-15T22:10:05.358Z,2.13
2023-01-15T22:12:33.975Z,2.53
2023-01-15T22:15:00.441Z,2.53
2023-01-15T22:17:27.087Z,2.20
2023-01-15T22:19:53.724Z,2.05
2023-01-15T22:22:20.466Z,2.60
2023-01-15T22:24:47.354Z,3.03
2023-01-15T22:27:15.867Z,2.45
2023-01-15T22:29:43.340Z,2.35
2023-01-15T22:32:12.060Z,2.47
2023-01-15T22:34:39.023Z,2.40
2023-01-15T22:37:05.955Z,1.40
2023-01-15T22:39:32.944Z,1.75
2023-01-15T22:42:19.170Z,1.60
2023-01-15T22:44:46.937Z,1.77
2023-01-15T22:47:13.643Z,2.00
2023-01-15T22:49:40.295Z,1.67
2023-01-15T22:52:07.442Z,1.42
2023-01-15T22:54:34.099Z,1.42
2023-01-15T22:57:01.032Z,1.33
2023-01-15T22:59:27.673Z,1.80
2023-01-15T23:01:54.396Z,1.77
2023-01-15T23:04:23.510Z,1.48
2023-01-15T23:06:51.802Z,1.98
2023-01-15T23:09:20.031Z,1.50
2023-01-15T23:11:46.758Z,1.30
2023-01-15T23:14:17.060Z,1.42
2023-01-15T23:16:44.188Z,1.75
2023-01-15T23:19:12.186Z,1.70
2023-01-15T23:21:40.223Z,1.50
2023-01-15T23:24:07.102Z,1.87
2023-01-15T23:26:34.574Z,1.90
2023-01-15T23:29:01.245Z,2.55
2023-01-15T23:31:28.269Z,2.13
2023-01-15T23:33:55.296Z,1.48
2023-01-15T23:36:22.344Z,1.27
2023-01-15T23:38:49.145Z,1.70
2023-01-15T23:41:18.077Z,1.83
2023-01-15T23:44:03.544Z,2.08
2023-01-15T23:46:33.522Z,1.80
2023-01-15T23:49:05.241Z,1.33
2023-01-15T23:51:32.894Z,1.38
2023-01-15T23:54:00.184Z,1.92
2023-01-15T23:56:27.939Z,1.27
2023-01-15T23:58:54.560Z,1.50
